Terminal Aerodrome Forecast
Issued by NWS

Home | Current Version | Previous Version | Text Only | Print | Product List | Glossary Off
Versions: 1 2 3 4 5 6 7 8 9 10 11 12 13 14 15

000
FTUS43 KGRB 310500
TAFAUW
TAF
KAUW 310520Z 3106/0106 29004KT P6SM VCSH SCT040 BKN120
     FM310800 27003KT 5SM BR SCT100
      TEMPO 3109/3112 2SM BR SCT002
     FM311300 28006KT P6SM SCT040 SCT100=

USA.gov is the U.S. government's official web portal to all federal, state and local government web resources and services.